createdAt,value
2019-01-29T00:03:00.425Z,99.90
2019-01-29T00:06:04.919Z,99.90
2019-01-29T00:09:08.713Z,99.90
2019-01-29T00:12:12.441Z,99.90
2019-01-29T00:15:16.053Z,99.90
2019-01-29T00:18:19.754Z,99.90
2019-01-29T00:21:23.383Z,99.90
2019-01-29T00:24:27.095Z,99.90
2019-01-29T00:27:30.752Z,99.90
2019-01-29T00:30:34.434Z,99.90
2019-01-29T00:33:38.077Z,99.90
2019-01-29T00:36:42.187Z,99.90
2019-01-29T00:39:46.335Z,99.90
2019-01-29T00:42:50.036Z,99.90
2019-01-29T00:45:53.843Z,99.90
2019-01-29T00:48:57.767Z,99.90
2019-01-29T00:52:03.025Z,99.90
2019-01-29T00:55:09.948Z,99.90
2019-01-29T00:58:13.624Z,99.90
2019-01-29T01:01:17.214Z,99.90
2019-01-29T01:04:20.833Z,99.90
2019-01-29T01:07:24.582Z,99.90
2019-01-29T01:10:28.933Z,99.90
2019-01-29T01:13:32.638Z,99.90
2019-01-29T01:16:36.193Z,99.90
2019-01-29T01:19:39.846Z,99.90
2019-01-29T01:22:50.619Z,99.90
2019-01-29T01:25:48.893Z,99.90
2019-01-29T01:28:52.604Z,99.90
2019-01-29T01:31:56.224Z,99.90
2019-01-29T01:34:59.936Z,99.90
2019-01-29T01:38:03.564Z,99.90
2019-01-29T01:41:07.243Z,99.90
2019-01-29T01:44:10.893Z,99.90
2019-01-29T01:47:14.563Z,99.80
2019-01-29T01:50:18.208Z,99.90
2019-01-29T01:53:21.893Z,99.70
2019-01-29T01:56:25.563Z,99.90
2019-01-29T01:59:29.235Z,99.90
2019-01-29T02:02:32.812Z,99.90
2019-01-29T02:05:36.485Z,99.90
2019-01-29T02:08:41.142Z,99.90
2019-01-29T02:11:44.775Z,99.90
2019-01-29T02:14:48.473Z,99.90
2019-01-29T02:17:52.054Z,99.90
2019-01-29T02:20:55.718Z,99.90
2019-01-29T02:23:59.370Z,99.90
2019-01-29T02:27:02.992Z,99.90
2019-01-29T02:30:15.390Z,99.90
2019-01-29T02:33:19.021Z,99.90
2019-01-29T02:36:22.697Z,99.90
2019-01-29T02:39:26.336Z,99.90
2019-01-29T02:42:30.032Z,99.90
2019-01-29T02:45:33.683Z,99.90
2019-01-29T02:48:37.329Z,99.90
2019-01-29T02:51:40.981Z,99.90
2019-01-29T02:54:44.656Z,99.90
2019-01-29T02:57:48.314Z,99.90
2019-01-29T03:00:52.036Z,99.90
2019-01-29T03:07:39.004Z,99.90
2019-01-29T03:10:42.664Z,99.90
2019-01-29T03:13:46.336Z,99.90
2019-01-29T03:16:50.029Z,99.90
2019-01-29T03:19:53.728Z,99.90
2019-01-29T03:22:57.438Z,99.30
2019-01-29T03:26:01.113Z,99.90
2019-01-29T03:29:04.824Z,99.90
2019-01-29T03:32:08.430Z,99.90
2019-01-29T03:35:12.083Z,99.90
2019-01-29T03:38:15.765Z,99.90
2019-01-29T03:41:19.363Z,99.90
2019-01-29T03:44:23.018Z,99.90
2019-01-29T03:47:26.696Z,99.90
2019-01-29T03:50:30.360Z,99.90
2019-01-29T03:53:38.177Z,99.90
2019-01-29T03:56:39.353Z,99.80
2019-01-29T03:59:42.982Z,99.20
2019-01-29T04:02:46.644Z,98.80
2019-01-29T04:05:50.263Z,97.80
2019-01-29T04:08:53.909Z,97.70
2019-01-29T04:11:57.573Z,97.80
2019-01-29T04:15:01.202Z,97.60
2019-01-29T04:18:04.907Z,97.20
2019-01-29T04:21:08.654Z,97.40
2019-01-29T04:24:12.333Z,96.70
2019-01-29T04:27:15.989Z,96.10
2019-01-29T04:30:21.464Z,96.00
2019-01-29T04:33:25.132Z,96.60
2019-01-29T04:36:28.784Z,96.50
2019-01-29T04:39:32.399Z,96.20
2019-01-29T04:42:36.051Z,97.40
2019-01-29T04:45:39.736Z,96.00
2019-01-29T04:48:43.388Z,96.40
2019-01-29T04:51:47.055Z,95.50
2019-01-29T04:54:50.728Z,95.60
2019-01-29T04:57:54.424Z,95.60
2019-01-29T05:00:58.084Z,95.60
2019-01-29T05:04:01.764Z,95.40
2019-01-29T05:07:05.402Z,95.60
2019-01-29T05:10:14.012Z,95.60
2019-01-29T05:13:19.034Z,95.50
2019-01-29T05:16:22.654Z,95.40
2019-01-29T05:19:26.289Z,95.70
2019-01-29T05:22:29.996Z,95.70
2019-01-29T05:25:33.763Z,95.80
2019-01-29T05:28:37.443Z,96.00
2019-01-29T05:31:41.142Z,96.00
2019-01-29T05:34:44.778Z,96.30
2019-01-29T05:37:48.418Z,96.70
2019-01-29T05:40:52.013Z,96.90
2019-01-29T05:43:55.677Z,96.90
2019-01-29T05:46:59.327Z,96.70
2019-01-29T05:50:03.018Z,96.80
2019-01-29T05:53:06.661Z,97.00
2019-01-29T05:56:10.319Z,97.00
2019-01-29T05:59:13.963Z,96.80
2019-01-29T06:02:17.661Z,96.60
2019-01-29T06:05:21.247Z,96.70
2019-01-29T06:08:24.913Z,96.60
2019-01-29T06:11:28.516Z,96.40
2019-01-29T06:14:32.188Z,96.40
2019-01-29T06:17:35.830Z,96.30
2019-01-29T06:20:39.451Z,96.40
2019-01-29T06:23:43.043Z,96.20
2019-01-29T06:26:46.645Z,96.30
2019-01-29T06:29:50.292Z,96.60
2019-01-29T06:32:53.992Z,96.40
2019-01-29T06:35:57.620Z,96.80
2019-01-29T06:39:01.315Z,96.60
2019-01-29T06:42:05.082Z,96.50
2019-01-29T06:45:14.002Z,96.40
2019-01-29T06:48:17.620Z,96.50
2019-01-29T06:51:21.295Z,96.50
2019-01-29T06:54:24.833Z,96.50
2019-01-29T06:57:28.522Z,96.70
2019-01-29T07:00:32.761Z,96.60
2019-01-29T07:03:36.433Z,96.80
2019-01-29T07:06:40.116Z,96.40
2019-01-29T07:09:43.862Z,96.50
2019-01-29T07:12:47.543Z,96.40
2019-01-29T07:15:52.931Z,96.30
2019-01-29T07:18:58.170Z,96.50
2019-01-29T07:22:02.413Z,96.40
2019-01-29T07:25:08.322Z,96.20
2019-01-29T07:28:13.399Z,96.00
2019-01-29T07:31:17.139Z,95.80
2019-01-29T07:34:20.773Z,95.00
2019-01-29T07:37:24.417Z,95.20
2019-01-29T07:40:28.113Z,95.50
2019-01-29T07:43:31.756Z,95.30
2019-01-29T07:46:35.432Z,95.30
2019-01-29T07:49:38.987Z,95.40
2019-01-29T07:52:42.723Z,95.10
2019-01-29T07:55:46.371Z,95.50
2019-01-29T07:58:50.043Z,95.50
2019-01-29T08:01:53.617Z,95.40
2019-01-29T08:04:57.295Z,95.30
2019-01-29T08:08:00.933Z,95.50
2019-01-29T08:11:04.615Z,95.90
2019-01-29T08:14:08.275Z,95.50
2019-01-29T08:17:11.927Z,95.20
2019-01-29T08:20:16.713Z,94.80
2019-01-29T08:23:20.340Z,94.80
2019-01-29T08:26:24.033Z,94.90
2019-01-29T08:29:27.675Z,94.10
2019-01-29T08:32:31.365Z,94.20
2019-01-29T08:35:35.023Z,93.50
2019-01-29T08:38:38.712Z,92.60
2019-01-29T08:41:42.373Z,91.80
2019-01-29T08:44:46.054Z,91.70
2019-01-29T08:47:49.714Z,91.70
2019-01-29T08:50:53.316Z,92.00
2019-01-29T08:53:56.972Z,92.50
2019-01-29T08:57:00.619Z,92.10
2019-01-29T09:00:07.542Z,91.30
2019-01-29T09:03:11.189Z,91.00
2019-01-29T09:06:14.871Z,90.80
2019-01-29T09:09:18.503Z,90.20
2019-01-29T09:12:22.262Z,90.20
2019-01-29T09:15:25.908Z,90.60
2019-01-29T09:18:29.586Z,91.60
2019-01-29T09:21:33.241Z,92.90
2019-01-29T09:24:36.813Z,94.10
2019-01-29T09:27:40.443Z,93.70
2019-01-29T09:30:44.033Z,92.50
2019-01-29T09:33:47.723Z,91.20
2019-01-29T09:36:51.416Z,90.30
2019-01-29T09:39:55.083Z,89.90
2019-01-29T09:42:58.693Z,91.20
2019-01-29T09:46:02.387Z,91.80
2019-01-29T09:49:06.073Z,91.70
2019-01-29T09:52:09.721Z,91.30
2019-01-29T09:55:15.913Z,91.90
2019-01-29T09:58:19.504Z,92.20
2019-01-29T10:01:23.176Z,92.00
2019-01-29T10:04:26.834Z,92.40
2019-01-29T10:07:30.556Z,92.70
2019-01-29T10:10:34.155Z,92.50
2019-01-29T10:13:37.848Z,92.50
2019-01-29T10:16:41.424Z,92.50
2019-01-29T10:19:45.112Z,92.70
2019-01-29T10:22:48.675Z,92.90
2019-01-29T10:25:52.356Z,93.60
2019-01-29T10:28:55.995Z,93.70
2019-01-29T10:31:59.711Z,93.80
2019-01-29T10:35:03.812Z,93.90
2019-01-29T10:38:09.782Z,94.20
2019-01-29T10:41:13.400Z,94.60
2019-01-29T10:44:16.945Z,95.40
2019-01-29T10:47:20.566Z,95.50
2019-01-29T10:50:29.063Z,95.30
2019-01-29T10:53:32.813Z,95.30
2019-01-29T10:56:36.494Z,95.70
2019-01-29T10:59:40.154Z,95.90
2019-01-29T11:02:43.917Z,95.20
2019-01-29T11:05:47.726Z,95.40
2019-01-29T11:08:51.339Z,95.40
2019-01-29T11:11:55.059Z,94.90
2019-01-29T11:15:01.877Z,94.40
2019-01-29T11:18:08.732Z,94.80
2019-01-29T11:21:13.982Z,94.30
2019-01-29T11:24:17.913Z,94.40
2019-01-29T11:27:21.610Z,94.30
2019-01-29T11:30:27.402Z,93.70
2019-01-29T11:33:31.091Z,93.60
2019-01-29T11:36:34.732Z,93.00
2019-01-29T11:39:38.436Z,93.20
2019-01-29T11:42:42.105Z,92.80
2019-01-29T11:45:48.454Z,93.20
2019-01-29T11:48:52.085Z,92.70
2019-01-29T11:51:55.760Z,93.90
2019-01-29T11:54:59.447Z,94.00
2019-01-29T11:58:03.112Z,94.20
2019-01-29T12:01:07.547Z,94.60
2019-01-29T12:04:11.200Z,94.70
2019-01-29T12:07:14.762Z,94.70
2019-01-29T12:10:18.455Z,95.00
2019-01-29T12:13:22.031Z,95.10
2019-01-29T12:16:25.713Z,95.30
2019-01-29T12:19:29.345Z,95.50
2019-01-29T12:22:33.011Z,95.70
2019-01-29T12:25:36.647Z,96.10
2019-01-29T12:28:40.427Z,95.80
2019-01-29T12:31:44.045Z,95.50
2019-01-29T12:34:47.710Z,95.60
2019-01-29T12:37:51.417Z,95.80
2019-01-29T12:40:55.057Z,95.10
2019-01-29T12:43:58.672Z,95.00
2019-01-29T12:47:02.696Z,94.80
2019-01-29T12:50:09.665Z,95.00
2019-01-29T12:53:14.878Z,94.70
2019-01-29T12:56:21.568Z,94.90
2019-01-29T12:59:23.878Z,95.30
2019-01-29T13:02:36.154Z,95.40
2019-01-29T13:05:39.872Z,95.30
2019-01-29T13:08:43.759Z,95.80
2019-01-29T13:11:47.614Z,95.80
2019-01-29T13:14:51.554Z,96.30
2019-01-29T13:17:56.701Z,96.50
2019-01-29T13:21:00.442Z,96.30
2019-01-29T13:24:04.019Z,96.00
2019-01-29T13:27:07.896Z,96.20
2019-01-29T13:30:35.290Z,95.60
2019-01-29T13:33:39.094Z,96.20
2019-01-29T13:36:42.740Z,95.90
2019-01-29T13:39:46.446Z,96.40
2019-01-29T13:42:50.197Z,96.00
2019-01-29T13:45:53.980Z,96.40
2019-01-29T13:48:57.624Z,96.40
2019-01-29T13:52:01.322Z,96.50
2019-01-29T13:55:07.909Z,96.70
2019-01-29T13:58:11.615Z,96.50
2019-01-29T14:01:15.391Z,96.80
2019-01-29T14:04:19.136Z,96.60
2019-01-29T14:07:23.204Z,96.60
2019-01-29T14:10:26.891Z,96.60
2019-01-29T14:13:32.105Z,96.20
2019-01-29T14:16:35.899Z,96.10
2019-01-29T14:19:39.671Z,95.80
2019-01-29T14:22:43.380Z,95.90
2019-01-29T14:25:46.862Z,95.80
2019-01-29T14:28:51.377Z,95.90
2019-01-29T14:31:54.888Z,95.80
2019-01-29T14:34:58.549Z,95.70
2019-01-29T14:38:10.987Z,95.70
2019-01-29T14:41:14.633Z,95.40
2019-01-29T14:44:18.294Z,95.60
2019-01-29T14:47:22.081Z,95.50
2019-01-29T14:50:26.008Z,96.00
2019-01-29T14:53:29.665Z,96.10
2019-01-29T14:56:33.321Z,95.70
2019-01-29T14:59:37.018Z,95.60
2019-01-29T15:02:40.684Z,95.80
2019-01-29T15:05:44.336Z,95.70
2019-01-29T15:08:48.025Z,96.00
2019-01-29T15:11:51.733Z,96.00
2019-01-29T15:14:55.355Z,95.90
2019-01-29T15:18:00.535Z,95.70
2019-01-29T15:21:04.228Z,95.70
2019-01-29T15:24:07.932Z,95.60
2019-01-29T15:27:11.615Z,95.70
2019-01-29T15:30:28.121Z,95.50
2019-01-29T15:33:32.532Z,95.40
2019-01-29T15:36:36.258Z,95.00
2019-01-29T15:39:39.953Z,95.10
2019-01-29T15:42:43.592Z,95.20
2019-01-29T15:45:47.272Z,95.60
2019-01-29T15:48:50.912Z,95.40
2019-01-29T15:51:54.543Z,95.60
2019-01-29T15:54:58.264Z,95.60
2019-01-29T15:58:01.877Z,95.90
2019-01-29T16:01:05.597Z,95.80
2019-01-29T16:04:09.306Z,96.40
2019-01-29T16:07:12.937Z,96.40
2019-01-29T16:10:20.064Z,96.40
2019-01-29T16:13:23.775Z,95.90
2019-01-29T16:16:27.504Z,96.10
2019-01-29T16:19:32.628Z,95.90
2019-01-29T16:22:36.312Z,95.70
2019-01-29T16:25:40.007Z,95.70
2019-01-29T16:28:43.643Z,95.70
2019-01-29T16:31:47.357Z,95.90
2019-01-29T16:34:51.013Z,96.40
2019-01-29T16:37:54.694Z,96.40
2019-01-29T16:41:00.533Z,96.30
2019-01-29T16:44:04.166Z,95.90
2019-01-29T16:47:08.374Z,95.80
2019-01-29T16:50:15.283Z,95.70
2019-01-29T16:53:18.953Z,96.40
2019-01-29T16:56:22.648Z,96.60
2019-01-29T16:59:26.527Z,97.80
2019-01-29T17:02:30.168Z,97.80
2019-01-29T17:05:33.849Z,97.90
2019-01-29T17:08:37.563Z,97.80
2019-01-29T17:11:41.783Z,96.80
2019-01-29T17:14:45.574Z,96.80
2019-01-29T17:17:49.270Z,97.30
2019-01-29T17:27:40.245Z,97.10
2019-01-29T17:30:45.116Z,97.00
2019-01-29T17:33:48.836Z,96.80
2019-01-29T17:36:52.503Z,96.90
2019-01-29T17:39:56.206Z,96.60
2019-01-29T17:42:59.874Z,96.60
2019-01-29T17:46:03.675Z,96.80
2019-01-29T17:49:07.404Z,96.50
2019-01-29T17:52:11.070Z,96.60
2019-01-29T17:55:16.196Z,97.00
2019-01-29T17:58:19.868Z,97.40
2019-01-29T18:01:23.572Z,97.80
2019-01-29T18:04:27.570Z,97.70
2019-01-29T18:07:31.192Z,98.20
2019-01-29T18:10:34.893Z,98.30
2019-01-29T18:13:38.554Z,98.50
2019-01-29T18:16:42.276Z,98.80
2019-01-29T18:19:46.151Z,98.50
2019-01-29T18:22:49.833Z,98.00
2019-01-29T18:25:53.729Z,96.80
2019-01-29T18:28:57.382Z,96.90
2019-01-29T18:32:01.101Z,97.20
2019-01-29T18:35:08.381Z,97.30
2019-01-29T18:38:12.201Z,96.40
2019-01-29T18:41:15.904Z,96.00
2019-01-29T18:44:19.592Z,96.00
2019-01-29T18:47:23.394Z,95.60
2019-01-29T18:50:27.035Z,96.20
2019-01-29T18:53:31.011Z,95.80
2019-01-29T18:56:36.572Z,95.40
2019-01-29T18:59:40.364Z,95.50
2019-01-29T19:02:44.022Z,95.50
2019-01-29T19:05:47.753Z,95.30
2019-01-29T19:08:51.427Z,94.90
2019-01-29T19:11:55.343Z,95.10
2019-01-29T19:14:59.012Z,96.70
2019-01-29T19:18:02.772Z,97.40
2019-01-29T19:21:06.564Z,97.40
2019-01-29T19:24:10.423Z,97.10
2019-01-29T19:27:14.250Z,96.30
2019-01-29T19:30:26.689Z,97.00
2019-01-29T19:33:30.339Z,96.60
2019-01-29T19:36:34.039Z,95.90
2019-01-29T19:39:37.890Z,95.30
2019-01-29T19:42:41.561Z,95.30
2019-01-29T19:45:45.513Z,95.90
2019-01-29T19:48:49.162Z,97.40
2019-01-29T19:51:52.978Z,96.90
2019-01-29T19:54:56.631Z,96.70
2019-01-29T19:58:08.785Z,95.80
2019-01-29T20:01:06.643Z,95.90
2019-01-29T20:04:10.307Z,96.80
2019-01-29T20:07:14.043Z,97.20
2019-01-29T20:10:19.543Z,96.80
2019-01-29T20:13:23.417Z,97.40
2019-01-29T20:16:27.087Z,97.50
2019-01-29T20:19:30.787Z,97.50
2019-01-29T20:22:34.510Z,96.90
2019-01-29T20:25:38.198Z,98.20
2019-01-29T20:28:42.790Z,98.00
2019-01-29T20:31:46.546Z,97.40
2019-01-29T20:34:50.212Z,97.70
2019-01-29T20:37:54.718Z,97.60
2019-01-29T20:40:58.620Z,97.60
2019-01-29T20:44:02.302Z,97.00
2019-01-29T20:47:06.100Z,96.80
2019-01-29T20:50:18.407Z,96.40
2019-01-29T20:53:23.693Z,96.60
2019-01-29T20:56:27.630Z,97.30
2019-01-29T20:59:31.334Z,98.40
2019-01-29T21:02:35.024Z,97.30
2019-01-29T21:05:38.791Z,96.70
2019-01-29T21:08:42.500Z,97.20
2019-01-29T21:11:46.146Z,96.50
2019-01-29T21:14:49.842Z,96.20
2019-01-29T21:17:53.574Z,96.10
2019-01-29T21:20:57.470Z,95.90
2019-01-29T21:24:02.284Z,95.60
2019-01-29T21:27:05.961Z,95.70
2019-01-29T21:30:12.714Z,95.90
2019-01-29T21:33:16.481Z,95.80
2019-01-29T21:36:20.119Z,96.30
2019-01-29T21:39:23.869Z,96.40
2019-01-29T21:42:27.981Z,96.10
2019-01-29T21:45:31.642Z,96.40
2019-01-29T21:48:35.292Z,96.50
2019-01-29T21:51:39.148Z,97.70
2019-01-29T21:54:42.792Z,97.40
2019-01-29T21:57:46.390Z,97.60
2019-01-29T22:00:50.071Z,96.70
2019-01-29T22:03:53.690Z,96.60
2019-01-29T22:06:57.384Z,97.70
2019-01-29T22:10:00.976Z,96.90
2019-01-29T22:13:05.021Z,95.90
2019-01-29T22:16:08.711Z,96.20
2019-01-29T22:19:12.372Z,97.80
2019-01-29T22:22:16.042Z,96.90
2019-01-29T22:25:22.060Z,97.00
2019-01-29T22:28:26.229Z,96.00
2019-01-29T22:31:29.912Z,95.70
2019-01-29T22:34:33.549Z,95.70
2019-01-29T22:37:37.237Z,95.40
2019-01-29T22:40:40.958Z,95.70
2019-01-29T22:43:44.685Z,96.10
2019-01-29T22:46:48.384Z,96.00
2019-01-29T22:49:52.057Z,95.90
2019-01-29T22:52:55.774Z,95.80
2019-01-29T22:55:59.418Z,95.60
2019-01-29T22:59:03.112Z,95.90
2019-01-29T23:02:06.794Z,95.90
2019-01-29T23:05:10.667Z,96.10
2019-01-29T23:08:14.355Z,95.90
2019-01-29T23:11:18.300Z,95.80
2019-01-29T23:14:21.942Z,95.50
2019-01-29T23:17:25.613Z,95.90
2019-01-29T23:20:29.241Z,95.70
2019-01-29T23:23:34.156Z,95.50
2019-01-29T23:26:37.833Z,95.20
2019-01-29T23:29:43.723Z,95.10
2019-01-29T23:32:46.820Z,95.40
2019-01-29T23:35:50.454Z,95.20
2019-01-29T23:38:54.145Z,94.90
2019-01-29T23:41:57.835Z,95.10
2019-01-29T23:45:01.499Z,95.10
2019-01-29T23:48:05.142Z,95.00
2019-01-29T23:51:08.795Z,94.90
2019-01-29T23:54:12.705Z,95.10
2019-01-29T23:57:16.293Z,94.70
